createdAt,value
2019-05-28T00:00:58.866Z,16.75
2019-05-28T00:03:28.559Z,15.25
2019-05-28T00:05:58.120Z,17.10
2019-05-28T00:08:27.763Z,18.67
2019-05-28T00:10:57.312Z,18.37
2019-05-28T00:13:26.938Z,16.61
2019-05-28T00:15:56.563Z,18.57
2019-05-28T00:18:26.186Z,18.90
2019-05-28T00:20:55.827Z,18.48
2019-05-28T00:23:25.399Z,17.30
2019-05-28T00:25:55.028Z,17.00
2019-05-28T00:28:24.730Z,18.77
2019-05-28T00:30:54.436Z,18.77
2019-05-28T00:35:52.802Z,19.15
2019-05-28T00:38:22.634Z,19.71
2019-05-28T00:40:52.394Z,20.48
2019-05-28T00:43:22.556Z,22.00
2019-05-28T00:45:52.183Z,20.35
2019-05-28T00:48:21.928Z,22.27
2019-05-28T00:50:51.618Z,21.23
2019-05-28T00:53:21.319Z,20.70
2019-05-28T00:55:51.403Z,22.60
2019-05-28T00:58:21.108Z,21.97
2019-05-28T01:00:51.660Z,21.10
2019-05-28T01:03:22.633Z,21.28
2019-05-28T01:05:52.239Z,21.55
2019-05-28T01:08:21.810Z,22.98
2019-05-28T01:10:52.492Z,20.85
2019-05-28T01:13:22.234Z,21.80
2019-05-28T01:15:51.856Z,21.65
2019-05-28T01:18:21.611Z,21.77
2019-05-28T01:20:51.349Z,20.77
2019-05-28T01:23:20.918Z,20.90
2019-05-28T01:25:50.628Z,20.92
2019-05-28T01:28:22.707Z,19.54
2019-05-28T01:30:57.671Z,21.42
2019-05-28T01:33:23.601Z,20.27
2019-05-28T01:35:53.162Z,21.73
2019-05-28T01:38:22.782Z,22.67
2019-05-28T01:40:52.412Z,21.62
2019-05-28T01:43:22.150Z,20.72
2019-05-28T01:45:51.811Z,21.00
2019-05-28T01:48:21.437Z,22.98
2019-05-28T01:50:51.066Z,21.45
2019-05-28T01:53:22.462Z,21.74
2019-05-28T01:55:52.038Z,24.40
2019-05-28T01:58:21.599Z,24.50
2019-05-28T02:00:51.234Z,26.77
2019-05-28T02:03:20.843Z,28.17
2019-05-28T02:05:50.455Z,27.52
2019-05-28T02:08:20.022Z,28.50
2019-05-28T02:10:49.781Z,27.65
2019-05-28T02:13:19.425Z,27.67
2019-05-28T02:15:48.951Z,28.23
2019-05-28T02:18:22.459Z,28.21
2019-05-28T02:20:52.068Z,26.90
2019-05-28T02:23:21.882Z,28.98
2019-05-28T02:28:20.182Z,27.98
2019-05-28T02:30:50.764Z,27.17
2019-05-28T02:33:20.487Z,28.02
2019-05-28T02:35:50.108Z,27.55
2019-05-28T02:38:19.642Z,27.15
2019-05-28T02:40:49.225Z,28.40
2019-05-28T02:43:22.543Z,26.42
2019-05-28T02:45:52.170Z,28.90
2019-05-28T02:48:21.786Z,28.70
2019-05-28T02:50:57.443Z,30.68
2019-05-28T02:53:27.523Z,29.95
2019-05-28T02:55:58.005Z,30.40
2019-05-28T02:58:32.964Z,28.80
2019-05-28T03:01:03.460Z,30.57
2019-05-28T03:03:33.363Z,31.23
2019-05-28T03:06:03.529Z,31.42
2019-05-28T03:08:33.260Z,25.15
2019-05-28T03:11:04.380Z,30.85
2019-05-28T03:13:34.450Z,30.02
2019-05-28T03:16:06.133Z,32.28
2019-05-28T03:18:37.985Z,32.67
2019-05-28T03:21:09.619Z,28.40
2019-05-28T03:23:40.499Z,31.20
2019-05-28T03:26:10.305Z,32.73
2019-05-28T03:31:08.712Z,32.17
2019-05-28T03:33:39.446Z,31.10
2019-05-28T03:38:39.968Z,31.45
2019-05-28T03:41:09.649Z,31.97
2019-05-28T03:43:39.280Z,31.48
2019-05-28T03:46:08.829Z,32.38
2019-05-28T03:48:39.352Z,33.33
2019-05-28T03:51:08.912Z,33.78
2019-05-28T03:53:38.473Z,33.65
2019-05-28T03:56:08.104Z,32.53
2019-05-28T03:58:37.655Z,31.97
2019-05-28T04:01:07.281Z,33.02
2019-05-28T04:03:36.868Z,31.52
2019-05-28T04:06:06.561Z,32.15
2019-05-28T04:08:36.134Z,33.67
2019-05-28T04:11:05.763Z,32.48
2019-05-28T04:13:35.306Z,30.10
2019-05-28T04:16:05.014Z,29.67
2019-05-28T04:18:34.578Z,30.92
2019-05-28T04:21:04.284Z,30.15
2019-05-28T04:23:34.003Z,28.62
2019-05-28T04:26:03.712Z,28.87
2019-05-28T04:28:33.314Z,30.92
2019-05-28T04:31:02.883Z,28.17
2019-05-28T04:33:32.504Z,30.32
2019-05-28T04:36:02.151Z,30.37
2019-05-28T04:38:31.691Z,31.17
2019-05-28T04:41:01.259Z,30.88
2019-05-28T04:43:30.807Z,31.25
2019-05-28T04:46:00.374Z,30.60
2019-05-28T04:48:30.065Z,29.37
2019-05-28T04:50:59.671Z,31.10
2019-05-28T04:53:30.265Z,32.23
2019-05-28T04:55:59.823Z,30.60
2019-05-28T04:58:29.383Z,31.15
2019-05-28T05:00:58.951Z,30.95
2019-05-28T05:05:57.805Z,28.25
2019-05-28T05:10:56.228Z,30.50
2019-05-28T05:15:54.607Z,29.15
2019-05-28T05:18:24.174Z,29.05
2019-05-28T05:20:53.798Z,28.52
2019-05-28T05:23:23.373Z,29.65
2019-05-28T05:25:52.947Z,29.45
2019-05-28T05:28:22.567Z,28.23
2019-05-28T05:30:52.134Z,25.65
2019-05-28T05:33:21.755Z,26.62
2019-05-28T05:35:51.322Z,26.60
2019-05-28T05:38:20.855Z,24.60
2019-05-28T05:40:50.445Z,25.92
2019-05-28T05:43:20.162Z,24.72
2019-05-28T05:45:49.711Z,26.25
2019-05-28T05:48:22.765Z,26.35
2019-05-28T05:50:52.415Z,26.17
2019-05-28T05:53:22.103Z,26.65
2019-05-28T05:55:51.733Z,27.25
2019-05-28T05:58:21.315Z,26.95
2019-05-28T06:00:50.893Z,26.82
2019-05-28T06:03:38.967Z,29.15
2019-05-28T06:05:52.693Z,29.07
2019-05-28T06:08:22.235Z,29.35
2019-05-28T06:10:51.895Z,27.45
2019-05-28T06:13:21.494Z,27.93
2019-05-28T06:15:51.048Z,28.12
2019-05-28T06:18:20.672Z,28.38
2019-05-28T06:20:50.327Z,28.10
2019-05-28T06:23:19.888Z,27.85
2019-05-28T06:25:49.432Z,28.05
2019-05-28T06:30:47.907Z,27.07
2019-05-28T06:33:18.668Z,27.00
2019-05-28T06:35:48.234Z,26.70
2019-05-28T06:38:17.850Z,26.20
2019-05-28T06:40:47.494Z,25.85
2019-05-28T06:43:17.197Z,26.33
2019-05-28T06:45:48.555Z,26.07
2019-05-28T06:48:18.421Z,25.12
2019-05-28T06:53:16.806Z,25.37
2019-05-28T06:55:47.357Z,24.23
2019-05-28T06:58:16.968Z,23.98
2019-05-28T07:00:46.519Z,25.23
2019-05-28T07:03:16.290Z,23.98
2019-05-28T07:08:14.658Z,25.05
2019-05-28T07:10:57.081Z,25.82
2019-05-28T07:13:16.488Z,26.27
2019-05-28T07:15:46.168Z,26.95
2019-05-28T07:20:44.470Z,26.42
2019-05-28T07:23:14.179Z,25.92
2019-05-28T07:28:12.539Z,25.52
2019-05-28T07:30:42.160Z,26.40
2019-05-28T07:33:11.803Z,27.20
2019-05-28T07:38:11.734Z,26.93
2019-05-28T07:40:41.384Z,27.77
2019-05-28T07:43:10.938Z,28.62
2019-05-28T07:45:40.858Z,27.02
2019-05-28T07:48:10.421Z,26.10
2019-05-28T07:50:40.052Z,23.47
2019-05-28T07:53:09.675Z,22.15
2019-05-28T07:55:39.291Z,14.60
2019-05-28T07:58:08.938Z,14.60
2019-05-28T08:05:37.425Z,13.43
2019-05-28T08:08:10.994Z,13.85
2019-05-28T08:10:40.720Z,14.40
2019-05-28T08:15:39.025Z,14.93
2019-05-28T08:18:09.559Z,14.50
2019-05-28T08:20:40.100Z,14.73
2019-05-28T08:23:09.791Z,14.55
2019-05-28T08:28:19.925Z,14.10
2019-05-28T08:30:41.208Z,18.70
2019-05-28T08:35:39.771Z,14.80
2019-05-28T08:38:09.315Z,14.50
2019-05-28T08:40:39.035Z,14.63
2019-05-28T08:45:37.539Z,15.50
2019-05-28T08:50:36.078Z,13.57
2019-05-28T08:55:34.586Z,14.67
2019-05-28T09:00:38.436Z,16.13
2019-05-28T09:03:08.620Z,16.02
2019-05-28T09:05:38.318Z,16.37
2019-05-28T09:10:37.274Z,16.25
2019-05-28T09:13:07.108Z,16.67
2019-05-28T09:15:36.818Z,15.65
2019-05-28T09:18:06.770Z,15.45
2019-05-28T09:20:36.410Z,14.90
2019-05-28T09:25:34.779Z,13.30
2019-05-28T09:30:33.247Z,14.03
2019-05-28T09:35:44.208Z,12.87
2019-05-28T09:38:03.007Z,12.95
2019-05-28T09:40:49.280Z,13.28
2019-05-28T09:43:05.125Z,13.35
2019-05-28T09:45:34.813Z,12.30
2019-05-28T09:50:33.287Z,11.67
2019-05-28T09:53:03.276Z,11.85
2019-05-28T09:55:32.971Z,11.20
2019-05-28T09:58:02.661Z,10.98
2019-05-28T10:03:02.982Z,10.68
2019-05-28T10:08:01.330Z,4.97
2019-05-28T10:12:59.637Z,5.20
2019-05-28T10:17:58.130Z,4.57
2019-05-28T10:20:28.595Z,4.65
2019-05-28T10:22:58.153Z,4.80
2019-05-28T10:25:27.785Z,4.35
2019-05-28T10:30:27.999Z,4.47
2019-05-28T10:32:57.713Z,4.42
2019-05-28T10:35:27.781Z,4.75
2019-05-28T10:37:57.461Z,4.47
2019-05-28T10:42:56.021Z,3.40
2019-05-28T10:47:54.477Z,3.70
2019-05-28T10:50:24.456Z,3.62
2019-05-28T10:52:54.004Z,3.50
2019-05-28T10:55:23.630Z,3.70
2019-05-28T11:00:23.384Z,3.33
2019-05-28T11:02:52.993Z,3.27
2019-05-28T11:07:51.542Z,3.30
2019-05-28T11:12:51.989Z,3.40
2019-05-28T11:17:52.400Z,3.30
2019-05-28T11:22:51.099Z,3.12
2019-05-28T11:27:49.473Z,3.45
2019-05-28T11:32:48.066Z,3.85
2019-05-28T11:37:47.063Z,3.42
2019-05-28T11:42:45.731Z,3.67
2019-05-28T11:45:18.015Z,3.45
2019-05-28T11:47:51.027Z,3.50
2019-05-28T11:50:19.592Z,3.50
2019-05-28T11:52:49.195Z,3.47
2019-05-28T11:57:47.780Z,3.30
2019-05-28T12:02:46.348Z,3.22
2019-05-28T12:05:17.796Z,3.30
2019-05-28T12:07:50.941Z,3.50
2019-05-28T12:10:19.324Z,3.40
2019-05-28T12:12:48.910Z,3.30
2019-05-28T12:17:47.856Z,3.08
2019-05-28T12:20:19.758Z,3.30
2019-05-28T12:22:49.444Z,3.50
2019-05-28T12:25:19.540Z,3.37
2019-05-28T12:27:49.173Z,3.40
2019-05-28T12:32:48.614Z,3.62
2019-05-28T12:37:50.729Z,4.42
2019-05-28T12:40:21.016Z,4.90
2019-05-28T12:42:50.618Z,4.87
2019-05-28T12:48:07.414Z,4.83
2019-05-28T12:50:22.092Z,5.37
2019-05-28T12:52:51.759Z,4.90
2019-05-28T12:55:21.990Z,4.83
2019-05-28T12:57:51.889Z,5.05
2019-05-28T13:00:22.263Z,7.15
2019-05-28T13:02:52.001Z,7.40
2019-05-28T13:05:24.680Z,6.10
2019-05-28T13:08:07.359Z,7.45
2019-05-28T13:10:25.531Z,7.83
2019-05-28T13:12:55.324Z,7.22
2019-05-28T13:15:25.276Z,8.50
2019-05-28T13:17:54.787Z,7.20
2019-05-28T13:20:24.609Z,6.05
2019-05-28T13:22:54.304Z,5.17
2019-05-28T13:25:23.994Z,5.70
2019-05-28T13:27:53.613Z,6.70
2019-05-28T13:30:23.522Z,8.78
2019-05-28T13:32:53.386Z,10.95
2019-05-28T13:35:23.659Z,9.90
2019-05-28T13:37:53.313Z,10.30
2019-05-28T13:40:23.395Z,10.20
2019-05-28T13:42:53.173Z,7.62
2019-05-28T13:45:22.948Z,7.08
2019-05-28T13:47:52.573Z,8.15
2019-05-28T13:50:22.306Z,9.33
2019-05-28T13:52:51.846Z,8.15
2019-05-28T13:55:21.631Z,9.28
2019-05-28T13:57:51.210Z,10.32
2019-05-28T14:00:21.488Z,11.73
2019-05-28T14:02:51.214Z,10.78
2019-05-28T14:05:21.635Z,12.80
2019-05-28T14:07:51.328Z,12.43
2019-05-28T14:10:21.108Z,12.05
2019-05-28T14:12:50.761Z,10.53
2019-05-28T14:15:22.796Z,9.68
2019-05-28T14:17:52.501Z,9.68
2019-05-28T14:20:22.281Z,10.15
2019-05-28T14:22:52.125Z,8.70
2019-05-28T14:25:21.799Z,9.53
2019-05-28T14:27:51.360Z,9.78
2019-05-28T14:30:21.362Z,8.55
2019-05-28T14:32:50.981Z,9.20
2019-05-28T14:35:20.668Z,8.73
2019-05-28T14:37:50.212Z,8.33
2019-05-28T14:42:48.523Z,8.95
2019-05-28T14:47:47.016Z,9.30
2019-05-28T14:50:17.186Z,9.30
2019-05-28T14:52:46.719Z,8.90
2019-05-28T14:57:45.385Z,6.83
2019-05-28T15:00:19.804Z,5.72
2019-05-28T15:02:49.422Z,6.35
2019-05-28T15:05:19.022Z,7.65
2019-05-28T15:10:18.257Z,7.47
2019-05-28T15:12:47.911Z,6.87
2019-05-28T15:15:34.700Z,7.12
2019-05-28T15:17:49.432Z,8.83
2019-05-28T15:22:47.981Z,9.98
2019-05-28T15:25:17.778Z,10.72
2019-05-28T15:27:47.395Z,12.58
2019-05-28T15:32:46.453Z,13.78
2019-05-28T15:37:44.874Z,13.45
2019-05-28T15:42:43.485Z,10.63
2019-05-28T15:47:44.651Z,9.10
2019-05-28T15:50:14.200Z,7.37
2019-05-28T15:52:43.746Z,8.23
2019-05-28T15:55:13.626Z,8.78
2019-05-28T15:57:43.277Z,9.33
2019-05-28T16:02:43.190Z,10.00
2019-05-28T16:05:12.969Z,9.45
2019-05-28T16:07:42.597Z,9.40
2019-05-28T16:12:40.974Z,13.00
2019-05-28T16:15:12.643Z,10.50
2019-05-28T16:17:42.407Z,7.10
2019-05-28T16:22:41.753Z,7.58
2019-05-28T16:25:12.247Z,6.65
2019-05-28T16:27:41.872Z,8.28
2019-05-28T16:30:13.495Z,8.28
2019-05-28T16:32:43.166Z,9.13
2019-05-28T16:35:13.144Z,9.40
2019-05-28T16:37:42.875Z,9.58
2019-05-28T16:40:16.254Z,8.40
2019-05-28T16:42:45.416Z,8.25
2019-05-28T16:47:43.926Z,6.63
2019-05-28T16:50:14.069Z,6.33
2019-05-28T16:52:43.666Z,6.17
2019-05-28T16:55:13.739Z,9.40
2019-05-28T16:57:43.452Z,9.08
2019-05-28T17:00:14.037Z,10.65
2019-05-28T17:02:43.692Z,10.82
2019-05-28T17:05:13.725Z,12.37
2019-05-28T17:07:43.448Z,12.68
2019-05-28T17:10:30.858Z,12.47
2019-05-28T17:12:44.689Z,14.10
2019-05-28T17:17:54.122Z,15.65
2019-05-28T17:20:23.811Z,17.15
2019-05-28T17:25:24.117Z,24.23
2019-05-28T17:27:53.844Z,21.70
2019-05-28T17:30:24.721Z,15.50
2019-05-28T17:32:54.646Z,26.80
2019-05-28T17:37:53.074Z,24.10
2019-05-28T17:40:23.258Z,24.87
2019-05-28T17:42:53.066Z,26.65
2019-05-28T17:45:24.741Z,24.77
2019-05-28T17:47:54.450Z,21.68
2019-05-28T17:52:53.958Z,23.47
2019-05-28T17:55:23.572Z,19.15
2019-05-28T17:57:53.443Z,17.60
2019-05-28T18:00:24.819Z,18.42
2019-05-28T18:05:23.353Z,17.27
2019-05-28T18:07:52.973Z,12.73
2019-05-28T18:10:22.889Z,12.93
2019-05-28T18:12:52.503Z,14.30
2019-05-28T18:15:22.182Z,11.70
2019-05-28T18:17:52.072Z,10.38
2019-05-28T18:20:21.731Z,10.15
2019-05-28T18:22:51.489Z,13.15
2019-05-28T18:27:50.415Z,15.90
2019-05-28T18:30:20.384Z,17.80
2019-05-28T18:32:52.976Z,14.20
2019-05-28T18:35:22.719Z,14.50
2019-05-28T18:40:21.511Z,14.98
2019-05-28T18:45:22.041Z,12.78
2019-05-28T18:47:53.276Z,11.85
2019-05-28T18:50:22.971Z,10.85
2019-05-28T18:52:52.726Z,11.12
2019-05-28T18:55:23.632Z,10.00
2019-05-28T18:57:53.363Z,9.90
2019-05-28T19:00:23.108Z,11.63
2019-05-28T19:05:21.853Z,12.95
2019-05-28T19:10:20.447Z,10.35
2019-05-28T19:15:19.001Z,8.25
2019-05-28T19:20:17.389Z,7.40
2019-05-28T19:22:47.031Z,5.97
2019-05-28T19:25:17.403Z,5.58
2019-05-28T19:27:47.049Z,5.33
2019-05-28T19:30:19.671Z,6.83
2019-05-28T19:32:49.665Z,6.62
2019-05-28T19:37:48.184Z,7.58
2019-05-28T19:42:48.102Z,5.15
2019-05-28T19:45:22.955Z,5.70
2019-05-28T19:47:52.577Z,5.47
2019-05-28T19:50:22.205Z,5.22
2019-05-28T19:52:51.904Z,5.90
2019-05-28T19:55:21.607Z,6.30
2019-05-28T19:57:51.347Z,5.83
2019-05-28T20:00:21.299Z,5.83
2019-05-28T20:05:19.835Z,6.58
2019-05-28T20:07:49.421Z,7.10
2019-05-28T20:10:19.991Z,7.65
2019-05-28T20:15:19.974Z,5.33
2019-05-28T20:17:50.332Z,5.97
2019-05-28T20:20:21.169Z,5.83
2019-05-28T20:22:51.948Z,5.83
2019-05-28T20:25:22.000Z,6.45
2019-05-28T20:27:51.924Z,5.87
2019-05-28T20:32:50.617Z,5.92
2019-05-28T20:35:20.330Z,7.05
2019-05-28T20:37:51.167Z,7.20
2019-05-28T20:40:20.862Z,6.80
2019-05-28T20:45:19.544Z,5.60
2019-05-28T20:47:49.670Z,6.83
2019-05-28T20:50:19.664Z,6.83
2019-05-28T20:52:49.471Z,7.03
2019-05-28T20:57:49.062Z,7.62
2019-05-28T21:00:19.061Z,7.95
2019-05-28T21:02:49.586Z,8.05
2019-05-28T21:05:19.303Z,8.35
2019-05-28T21:07:49.995Z,8.88
2019-05-28T21:10:20.053Z,9.13
2019-05-28T21:15:18.724Z,9.80
2019-05-28T21:17:49.051Z,10.43
2019-05-28T21:20:18.962Z,10.25
2019-05-28T21:25:17.293Z,10.90
2019-05-28T21:27:47.252Z,11.45
2019-05-28T21:30:18.703Z,12.18
2019-05-28T21:32:48.309Z,13.88
2019-05-28T21:35:18.162Z,14.15
2019-05-28T21:37:48.000Z,12.93
2019-05-28T21:40:18.342Z,13.95
2019-05-28T21:43:00.339Z,14.95
2019-05-28T21:45:19.620Z,14.68
2019-05-28T21:47:49.276Z,14.00
2019-05-28T21:50:19.152Z,15.28
2019-05-28T21:55:18.734Z,16.70
2019-05-28T21:57:48.456Z,16.35
2019-05-28T22:00:46.400Z,18.23
2019-05-28T22:03:17.752Z,17.67
2019-05-28T22:05:48.553Z,16.50
2019-05-28T22:10:47.238Z,17.32
2019-05-28T22:15:47.444Z,18.82
2019-05-28T22:18:18.239Z,19.52
2019-05-28T22:23:16.936Z,19.30
2019-05-28T22:28:15.548Z,19.70
2019-05-28T22:33:14.090Z,24.65
2019-05-28T22:38:12.966Z,23.13
2019-05-28T22:40:42.685Z,25.30
2019-05-28T22:43:12.343Z,25.82
2019-05-28T22:45:43.527Z,26.05
2019-05-28T22:48:16.598Z,29.18
2019-05-28T22:50:44.697Z,28.23
2019-05-28T22:53:14.524Z,28.57
2019-05-28T22:58:13.083Z,26.45
2019-05-28T23:00:42.858Z,26.02
2019-05-28T23:03:12.644Z,25.65
2019-05-28T23:05:42.363Z,25.85
2019-05-28T23:08:12.048Z,26.62
2019-05-28T23:10:41.711Z,28.52
2019-05-28T23:13:11.425Z,29.27
2019-05-28T23:15:41.021Z,28.57
2019-05-28T23:18:11.053Z,29.48
2019-05-28T23:20:40.647Z,28.67
2019-05-28T23:23:11.367Z,29.90
2019-05-28T23:25:41.047Z,30.90
2019-05-28T23:28:11.766Z,31.35
2019-05-28T23:30:42.679Z,29.52
2019-05-28T23:33:12.984Z,30.68
2019-05-28T23:35:43.666Z,30.02
2019-05-28T23:38:13.347Z,30.08
2019-05-28T23:40:43.005Z,29.65
2019-05-28T23:43:13.834Z,31.10
2019-05-28T23:45:43.754Z,31.33
2019-05-28T23:50:43.909Z,30.45
2019-05-28T23:55:43.490Z,30.72
2019-05-28T23:58:23.096Z,32.35
